Central City, PA

10:34 AM EDT on April 25, 2015 (GMT -0400)
Altoona-Blair County | | Change Station
CLOSE
Current Station
Airport
Location: Altoona,
Elevation: 1503 ft
Nearby Weather Stations

Elev 1503 ft 40.30 °N, 78.32 °W | Updated 41 minutes ago

Overcast
Overcast
39 °F
Feels Like 35 °F
N
6
Wind Variable Wind from NE

Today
High -- | Low -- °F
--% Chance of Precip.
Yesterday
High -- | Low -- °F
Precip. -- in
6:23 AM 8:03 PM
Waxing Crescent, 46% visible
Pressure 29.95 in
Visibility 10.0 miles
Clouds Overcast 6000 ft
Windchill 35 °F
Dew Point 16 °F
Humidity 39%
Rainfall 0.00 in
Snow Depth Not available.
UV 2 out of 12
Pollen 7.90 out of 12
Air Quality Not available.
Flu Activity Sporadic
METAR KAOO 251353Z AUTO 05005KT 10SM OVC060 04/M09 A2993 RMK AO2 SLP142 T00391089

More Conditions Fewer Conditions

Pressure 29.95 in
Visibility 10.0 miles
Clouds Overcast 6000 ft
Windchill 35 °F
Dew Point 16 °F
Humidity 39%
Rainfall 0.00 in
Snow Depth Not available.
UV 2 out of 12
Pollen 7.90 out of 12
Air Quality Not available.
Flu Activity Sporadic
METAR KAOO 251353Z AUTO 05005KT 10SM OVC060 04/M09 A2993 RMK AO2 SLP142 T00391089

More Conditions Fewer Conditions

10-Day Weather Forecast

Almanac

Astronomy

Apr. 25, 2015 Rise Set
Actual Time
Civil Twilight
Nautical Twilight
Astronomical Twilight
Moon
Length of Visible Light
Length of Day
Tomorrow will be .
, % of the Moon is Illuminated

Today's Extremes

State Highs State Lows

Community

WunderPhotos

Upload Photos

1,816,688 photos uploaded!

WunderBlogs® & News

Nearby

Air Quality

  Air Quality AQ Index Pollutant
Not available.

Snow Depth

Station Depth Elevation

Earthquake Activity

City Distance Mag. Time & Date
Minimum magnitude displayed is 2.5.

Coastal Water Temperatures

Place Temperature

Stations

Nearby Weather Stations

Station Location Temp. Windchill Dew Point Humidity Wind Precip. Elev Updated Type